Latest Weather Observations for Brisbane Airport

IDQ60901

Issued at 6:21 pm EST Thursday 30 July 2015 (issued every 10 minutes, with the page automatically refreshed every 10 minutes)

About weather observations | Map of Brisbane area stations | Latest observations for Brisbane area | Other Formats
Station Details ID: 040842 Name: BRISBANE AERO Lat: -27.39 Lon: 153.13 Height: 4.51 m
Data from the previous 72 hours. | See also: Recent months at Brisbane Airport
Date/Time
EST
Tmp

°C
App
Tmp
°C
Dew
Point
°C
Rel
Hum
%
Delta-T

°C
Wind Press
QNH
hPa
Press
MSL
hPa
Rain
since
9 am
mm
Dir
 
Spd
km/h
Gust
km/h
Spd
kts
Gust
kts
30/06:00pm 15.5 15.3 13.1 85 1.3 ENE 6 7 3 4 1024.8 1024.7 0.0
30/05:30pm 16.0 15.5 12.7 81 1.8 NE 7 9 4 5 1024.6 - 0.0
30/05:00pm 17.3 16.1 12.8 75 2.5 NE 11 13 6 7 1024.2 - 0.0
30/04:30pm 18.5 16.8 12.6 68 3.3 NE 13 17 7 9 1023.8 - 0.0
30/04:00pm 19.3 16.8 12.3 64 3.9 NE 17 20 9 11 1023.9 - 0.0
30/03:30pm 20.0 17.0 10.8 55 5.0 NE 17 22 9 12 1024.0 - 0.0
30/03:00pm 20.0 17.8 10.8 55 5.0 NE 13 19 7 10 1024.3 1024.2 0.0
30/02:30pm 20.3 18.7 11.4 56 4.9 ENE 11 15 6 8 1024.6 - 0.0
30/02:00pm 20.1 18.0 11.3 57 4.8 ENE 13 15 7 8 1024.7 - 0.0
30/01:30pm 19.7 18.0 11.1 57 4.7 NE 11 17 6 9 1025.1 - 0.0
30/01:00pm 19.6 17.8 10.9 57 4.7 ESE 11 15 6 8 1025.6 - 0.0
30/12:30pm 19.7 18.8 11.3 58 4.6 SE 7 15 4 8 1026.0 - 0.0
30/12:00pm 20.3 19.5 11.6 57 4.8 E 7 15 4 8 1026.5 1026.4 0.0
30/11:30am 19.5 17.7 11.0 58 4.6 SSE 11 17 6 9 1027.1 - 0.0
30/11:00am 19.4 17.5 10.4 56 4.8 S 11 15 6 8 1027.5 - 0.0
30/10:30am 18.0 15.3 9.1 56 4.6 S 13 19 7 10 1028.1 - 0.0
30/10:00am 17.4 13.9 8.8 57 4.4 SSW 17 22 9 12 1028.3 - 0.0
30/09:30am 16.4 12.1 7.8 56 4.3 SSW 20 26 11 14 1028.4 - 0.0
30/09:00am 15.3 10.8 7.1 58 4.0 SSW 20 28 11 15 1028.4 1028.3 0.0
30/08:30am 14.2 9.7 7.0 62 3.5 SSW 20 28 11 15 1028.2 - 0.0
30/08:00am 13.2 9.5 7.9 70 2.6 SSW 17 22 9 12 1027.9 - 0.0
30/07:30am 12.0 8.5 7.4 73 2.2 SSW 15 19 8 10 1027.8 - 0.0
30/07:00am 10.1 6.9 6.9 80 1.5 SSW 13 17 7 9 1027.5 - 0.0
30/06:30am 10.7 7.1 6.6 76 1.9 SSW 15 19 8 10 1027.4 - 0.0
30/06:00am 10.0 6.7 6.3 78 1.7 SSW 13 17 7 9 1027.3 1027.2 0.0
30/05:30am 11.4 8.5 6.3 71 2.4 SSW 11 15 6 8 1027.2 - 0.0
30/05:00am 10.0 7.1 6.3 78 1.7 SSW 11 15 6 8 1027.1 - 0.0
30/04:30am 12.1 9.5 5.9 66 2.9 S 9 15 5 8 1027.0 - 0.0
30/04:00am 10.9 7.7 6.9 76 1.9 SSW 13 19 7 10 1027.3 - 0.0
30/03:30am 12.8 9.4 6.0 63 3.2 SSW 13 17 7 9 1027.6 - 0.0
30/03:00am 12.3 8.6 6.3 67 2.8 SSW 15 19 8 10 1027.9 1027.8 0.0
30/02:30am 11.0 8.4 6.0 71 2.3 SSW 9 11 5 6 1028.0 - 0.0
30/02:00am 10.9 8.7 7.8 81 1.5 SW 9 11 5 6 1028.1 - 0.0
30/01:30am 10.3 8.0 7.6 83 1.3 SSW 9 11 5 6 1028.4 - 0.0
30/01:00am 11.6 9.4 7.9 78 1.8 SSW 9 11 5 6 1028.6 - 0.0
30/12:30am 11.8 10.3 9.0 83 1.4 SW 7 9 4 5 1028.8 - 0.0
30/12:00am 11.2 9.2 8.5 83 1.3 SSW 9 11 5 6 1029.3 1029.2 0.0
 
Date/Time
EST
Tmp

°C
App
Tmp
°C
Dew
Point
°C
Rel
Hum
%
Delta-T

°C
Wind Press
QNH
hPa
Press
MSL
hPa
Rain
since
9 am
mm
Dir
 
Spd
km/h
Gust
km/h
Spd
kts
Gust
kts
29/11:30pm 10.7 8.5 8.0 83 1.3 SW 9 11 5 6 1029.7 - 0.0
29/11:00pm 10.2 7.6 7.9 86 1.1 SW 11 13 6 7 1029.7 - 0.0
29/10:30pm 10.5 8.4 8.2 86 1.1 SSW 9 9 5 5 1029.8 - 0.0
29/10:00pm 10.9 8.7 8.0 82 1.4 SSW 9 11 5 6 1029.7 - 0.0
29/09:30pm 11.5 9.4 8.4 81 1.5 WSW 9 11 5 6 1029.6 - 0.0
29/09:00pm 11.2 9.5 8.5 83 1.3 W 7 9 4 5 1029.6 1029.5 0.0
29/08:30pm 12.3 11.0 9.1 81 1.6 W 6 7 3 4 1029.6 - 0.0
29/08:00pm 12.1 11.5 8.9 81 1.6 S 2 6 1 3 1029.7 - 0.0
29/07:30pm 13.4 13.4 9.7 78 1.9 CALM 0 0 0 0 1029.5 - 0.0
29/07:00pm 14.7 14.0 11.3 80 1.8 ESE 6 9 3 5 1029.2 - 0.0
29/06:30pm 15.5 14.2 11.2 75 2.3 E 9 11 5 6 1029.0 - 0.0
29/06:00pm 15.9 14.4 10.4 70 2.9 E 9 13 5 7 1028.7 1028.6 0.0
29/05:30pm 16.3 14.7 10.2 67 3.2 E 9 13 5 7 1028.5 - 0.0
29/05:00pm 17.3 14.9 8.7 57 4.4 ESE 11 17 6 9 1028.3 - 0.0
29/04:30pm 18.0 14.9 7.4 50 5.3 ESE 13 20 7 11 1028.1 - 0.0
29/04:00pm 18.4 15.0 7.5 49 5.5 E 15 20 8 11 1028.0 - 0.0
29/03:30pm 18.8 15.2 6.7 45 6.0 E 15 24 8 13 1027.9 - 0.0
29/03:00pm 19.0 15.2 5.9 42 6.4 ESE 15 24 8 13 1028.1 1028.0 0.0
29/02:30pm 19.3 15.6 6.1 42 6.5 E 15 24 8 13 1028.3 - 0.0
29/02:00pm 19.2 15.4 5.7 41 6.6 E 15 22 8 12 1028.4 - 0.0
29/01:30pm 20.0 16.8 6.9 42 6.6 ESE 13 19 7 10 1028.7 - 0.0
29/01:00pm 19.6 16.0 4.9 38 7.1 E 13 22 7 12 1029.0 - 0.0
29/12:30pm 19.6 16.0 5.1 38 7.1 SE 13 20 7 11 1029.5 - 0.0
29/12:00pm 19.3 14.8 4.1 36 7.2 S 17 24 9 13 1029.9 1029.8 0.0
29/11:30am 18.7 14.7 4.9 40 6.7 SSE 15 24 8 13 1030.6 - 0.0
29/11:00am 18.1 13.3 4.9 41 6.3 S 19 26 10 14 1031.3 - 0.0
29/10:30am 17.3 12.7 3.9 41 6.3 S 17 24 9 13 1031.7 - 0.0
29/10:00am 16.7 11.8 3.9 42 6.0 SSW 19 32 10 17 1032.0 - 0.0
29/09:30am 15.3 8.9 3.3 44 5.5 SSW 26 33 14 18 1032.2 - 0.0
29/09:00am 14.5 8.4 2.7 45 5.2 SSW 24 32 13 17 1032.2 1032.1 0.0
29/08:30am 13.3 7.3 3.1 50 4.5 SSW 24 32 13 17 1032.2 - 0.0
29/08:00am 11.8 6.7 3.1 55 3.8 SSW 19 26 10 14 1032.1 - 0.0
29/07:30am 10.5 5.7 2.8 59 3.3 SSW 17 22 9 12 1032.0 - 0.0
29/07:00am 9.6 4.4 2.5 61 3.0 SSW 19 24 10 13 1031.8 - 0.0
29/06:30am 9.4 4.6 2.5 62 2.9 SSW 17 24 9 13 1031.1 - 0.0
29/06:00am 9.3 4.5 2.4 62 2.9 SSW 17 24 9 13 1030.6 1030.5 0.0
29/05:30am 8.9 4.1 2.7 65 2.6 SSW 17 20 9 11 1030.4 - 0.0
29/05:00am 8.9 4.1 2.7 65 2.6 SSW 17 20 9 11 1030.2 - 0.0
29/04:30am 9.1 4.7 2.7 64 2.7 SSW 15 19 8 10 1030.1 - 0.0
29/04:00am 10.0 5.2 2.4 59 3.2 SSW 17 24 9 13 1030.2 - 0.0
29/03:30am 9.8 5.8 2.7 61 3.0 S 13 19 7 10 1030.3 - 0.0
29/03:00am 9.6 5.3 3.0 63 2.8 SSW 15 20 8 11 1030.3 1030.2 0.0
29/02:30am 9.6 4.9 3.3 65 2.7 SSW 17 20 9 11 1030.4 - 0.0
29/02:00am 10.8 6.0 2.6 57 3.5 SSW 17 22 9 12 1030.4 - 0.0
29/01:30am 10.8 5.7 2.9 58 3.4 SSW 19 22 10 12 1030.6 - 0.0
29/01:00am 9.9 5.3 3.7 65 2.7 SSW 17 22 9 12 1030.7 - 0.0
29/12:30am 10.1 5.5 3.9 65 2.7 SSW 17 20 9 11 1030.8 - 0.0
29/12:00am 10.4 6.3 4.5 67 2.6 SSW 15 20 8 11 1030.7 1030.6 0.0
 
Date/Time
EST
Tmp

°C
App
Tmp
°C
Dew
Point
°C
Rel
Hum
%
Delta-T

°C
Wind Press
QNH
hPa
Press
MSL
hPa
Rain
since
9 am
mm
Dir
 
Spd
km/h
Gust
km/h
Spd
kts
Gust
kts
28/11:30pm 10.5 7.1 4.1 64 2.8 SSW 11 15 6 8 1030.8 - 0.0
28/11:00pm 11.9 8.5 3.8 57 3.6 S 11 13 6 7 1030.9 - 0.0
28/10:30pm 12.3 9.2 3.4 54 3.9 S 9 11 5 6 1030.9 - 0.0
28/10:00pm 12.2 9.2 3.9 57 3.7 S 9 13 5 7 1030.9 - 0.0
28/09:30pm 12.3 9.4 4.8 60 3.4 S 9 15 5 8 1031.0 - 0.0
28/09:00pm 12.7 9.6 5.6 62 3.3 S 11 17 6 9 1031.0 1030.9 0.0
28/08:30pm 13.3 10.7 6.3 62 3.3 S 9 19 5 10 1030.7 - 0.0
28/08:00pm 13.8 11.3 6.7 62 3.4 S 9 13 5 7 1030.5 - 0.0
28/07:30pm 15.1 12.1 6.1 55 4.3 SE 11 17 6 9 1030.4 - 0.0
28/07:00pm 15.4 11.7 6.5 55 4.3 SE 15 24 8 13 1030.0 - 0.0
28/06:30pm 16.0 12.3 6.3 52 4.7 SE 15 26 8 14 1029.7 - 0.0
28/06:00pm 16.2 12.7 5.5 49 5.1 SE 13 22 7 12 1029.3 1029.2 0.0
28/05:30pm 16.0 12.1 5.5 49 5.0 ESE 15 24 8 13 1028.8 - 0.0
28/05:00pm 16.6 11.8 4.7 45 5.6 ESE 19 28 10 15 1028.7 - 0.0
28/04:30pm 17.0 12.4 5.5 46 5.5 ESE 19 30 10 16 1028.4 - 0.0
28/04:00pm 17.4 12.7 5.0 44 5.9 ESE 19 32 10 17 1028.3 - 0.0
28/03:30pm 17.7 13.5 7.3 50 5.2 ESE 19 30 10 16 1028.1 - 0.0
28/03:00pm 18.2 13.9 7.2 48 5.5 E 19 30 10 16 1027.9 1027.8 0.0
28/02:30pm 18.1 13.7 6.5 46 5.7 ESE 19 28 10 15 1027.9 - 0.0
28/02:00pm 18.9 15.1 7.4 47 5.8 E 17 28 9 15 1028.0 - 0.0
28/01:30pm 18.4 14.0 6.4 45 5.9 ESE 19 28 10 15 1028.2 - 0.0
28/01:00pm 18.7 14.1 5.8 42 6.3 ESE 19 30 10 16 1028.5 - 0.0
28/12:30pm 18.7 14.6 6.0 43 6.3 ESE 17 28 9 15 1028.7 - 0.0
28/12:00pm 19.1 14.8 7.1 45 6.0 ESE 19 28 10 15 1029.2 1029.1 0.0
28/11:30am 18.5 15.4 7.1 47 5.7 SSE 13 26 7 14 1029.5 - 0.0
28/11:00am 17.7 13.6 6.2 47 5.6 S 17 26 9 14 1030.0 - 0.0
28/10:30am 17.2 13.7 5.5 46 5.6 SSE 13 22 7 12 1030.2 - 0.0
28/10:00am 16.5 12.5 4.8 46 5.5 SSW 15 24 8 13 1030.4 - 0.0
28/09:30am 15.6 11.1 4.1 46 5.3 SSW 17 24 9 13 1030.2 - 0.0
28/09:00am 14.3 9.3 3.6 48 4.8 SSW 19 24 10 13 1030.1 1030.0 0.0
28/08:30am 12.9 9.0 3.4 52 4.2 SSW 13 17 7 9 1029.9 - 0.0
28/08:00am 12.5 7.8 3.4 54 4.0 SSW 17 20 9 11 1029.6 - 0.0
28/07:30am 10.7 6.1 3.6 61 3.1 SSW 17 22 9 12 1029.3 - 0.0
28/07:00am 10.5 5.9 3.6 62 3.0 SSW 17 24 9 13 1028.8 - 0.0
28/06:30am 10.7 6.0 3.3 60 3.2 SSW 17 20 9 11 1028.5 - 0.0
28/06:00am 10.8 7.3 3.7 61 3.1 SSW 11 15 6 8 1028.1 1028.0 0.0
28/05:30am 11.5 7.6 3.2 56 3.6 SSW 13 17 7 9 1027.7 - 0.0
28/05:00am 11.9 7.6 3.2 55 3.8 SSW 15 19 8 10 1027.6 - 0.0
28/04:30am 12.1 7.8 3.2 54 3.9 SSW 15 20 8 11 1027.2 - 0.0
28/04:00am 11.9 7.6 3.5 56 3.7 SSW 15 19 8 10 1027.1 - 0.0
28/03:30am 11.5 7.6 3.5 58 3.5 SSW 13 15 7 8 1026.8 - 0.0
28/03:00am 11.8 7.9 3.6 57 3.6 SSW 13 19 7 10 1026.7 1026.6 0.0
28/02:30am 11.4 7.7 4.2 61 3.2 SSW 13 15 7 8 1026.8 - 0.0
28/02:00am 12.2 8.5 4.4 59 3.5 SSW 13 17 7 9 1026.8 - 0.0
28/01:30am 11.5 7.9 4.9 64 3.0 SSW 13 15 7 8 1027.0 - 0.0
28/01:00am 11.2 8.9 5.5 68 2.6 SW 7 9 4 5 1026.9 - 0.0
28/12:30am 11.7 8.8 4.9 63 3.1 SSW 9 13 5 7 1026.6 - 0.0
28/12:00am 11.8 7.8 5.0 63 3.1 WSW 15 19 8 10 1026.6 1026.5 0.0
 
Date/Time
EST
Tmp

°C
App
Tmp
°C
Dew
Point
°C
Rel
Hum
%
Delta-T

°C
Wind Press
QNH
hPa
Press
MSL
hPa
Rain
since
9 am
mm
Dir
 
Spd
km/h
Gust
km/h
Spd
kts
Gust
kts
27/11:30pm 12.3 8.0 5.1 61 3.3 WSW 17 19 9 10 1026.5 - 0.0
27/11:00pm 13.3 9.7 5.1 57 3.8 WSW 13 15 7 8 1026.8 - 0.0
27/10:30pm 13.4 10.3 5.5 59 3.7 WSW 11 17 6 9 1026.8 - 0.0
27/10:00pm 14.0 11.4 6.0 58 3.8 WNW 9 15 5 8 1026.6 - 0.0
27/09:30pm 14.6 10.4 5.5 54 4.3 WSW 17 26 9 14 1026.1 - 0.0
27/09:00pm 14.6 10.3 5.2 53 4.4 W 17 20 9 11 1025.9 1025.8 0.0
27/08:30pm 15.6 10.6 4.7 48 5.1 WSW 20 28 11 15 1025.7 - 0.0
27/08:00pm 14.2 11.8 7.2 63 3.4 SW 9 11 5 6 1025.5 - 0.0
27/07:30pm 15.4 15.0 11.1 75 2.3 SW 4 9 2 5 1025.2 - 0.0
27/07:00pm 15.9 16.4 11.6 75 2.3 CALM 0 0 0 0 1024.9 - 0.0
27/06:30pm 16.7 15.7 10.9 68 3.1 E 7 11 4 6 1024.4 - 0.0

Latest Capital City Observations: Canberra | Sydney | Melbourne | Brisbane | Adelaide | Perth | Hobart | Darwin

Other Formats:

Comma delimited format used in spreadsheet applications
http://www.bom.gov.au/fwo/IDQ60901/IDQ60901.94578.axf

JavaScript Object Notation format (JSON) in row-major order
http://www.bom.gov.au/fwo/IDQ60901/IDQ60901.94578.json